Time;durP1;ratioP1;P1;durP2;ratioP2;P2;SDS_P1;SDS_P2;PMS_P1;PMS_P2;Temp;Humidity;BMP_temperature;BMP_pressure;BME280_temperature;BME280_humidity;BME280_pressure;Samples;Min_cycle;Max_cycle;Signal;HPM_P1;HPM_P2
2021/12/11 00:01:21;;;;;;;8.93;6.00;;;;;;;12.96;73.64;100643.63;5025274;27;102371;-49
2021/12/11 00:03:54;;;;;;;10.13;6.40;;;;;;;12.97;73.57;100647.97;5031077;27;102217;-49
2021/12/11 00:06:24;;;;;;;7.78;5.75;;;;;;;12.98;73.62;100649.59;5031180;27;102566;-50
2021/12/11 00:08:58;;;;;;;8.85;5.88;;;;;;;12.97;73.60;100646.06;5028309;27;103958;-49
2021/12/11 00:11:30;;;;;;;10.15;5.97;;;;;;;12.97;73.55;100646.06;5034120;27;102050;-49
2021/12/11 00:14:00;;;;;;;8.27;6.13;;;;;;;12.96;73.74;100632.72;5030342;27;102225;-49
2021/12/11 00:16:29;;;;;;;11.70;6.28;;;;;;;12.97;73.58;100623.41;5034296;27;101983;-50
2021/12/11 00:19:06;;;;;;;8.95;5.85;;;;;;;12.96;73.58;100630.78;5030693;27;103889;-49
2021/12/11 00:21:34;;;;;;;9.07;5.80;;;;;;;12.97;73.80;100634.31;5031929;27;102205;-49
2021/12/11 00:24:05;;;;;;;8.95;6.20;;;;;;;12.98;73.64;100630.47;5032953;27;102574;-50
2021/12/11 00:26:37;;;;;;;8.73;6.20;;;;;;;12.97;73.64;100626.94;5030006;27;103255;-49
2021/12/11 00:29:04;;;;;;;10.20;6.18;;;;;;;12.97;73.55;100626.13;5030409;28;103999;-51
2021/12/11 00:31:33;;;;;;;9.65;5.97;;;;;;;12.97;73.64;100628.88;5023239;27;102126;-49
2021/12/11 00:34:00;;;;;;;8.80;6.13;;;;;;;12.96;73.48;100629.97;5028166;27;102591;-49
2021/12/11 00:36:32;;;;;;;10.05;6.70;;;;;;;12.97;73.52;100616.00;5023281;27;102140;-49
2021/12/11 00:39:04;;;;;;;8.52;5.90;;;;;;;12.97;73.65;100598.81;5022752;27;104040;-50
2021/12/11 00:41:33;;;;;;;8.10;5.40;;;;;;;12.96;73.76;100619.03;5024757;27;102394;-49
2021/12/11 00:44:01;;;;;;;9.60;5.90;;;;;;;12.97;73.79;100628.88;5028879;27;102663;-49
2021/12/11 00:46:30;;;;;;;8.95;6.13;;;;;;;12.97;73.58;100612.47;5032586;27;102108;-49
2021/12/11 00:49:07;;;;;;;10.82;6.35;;;;;;;12.96;73.70;100610.84;5027509;27;103935;-50
2021/12/11 00:51:34;;;;;;;9.68;6.35;;;;;;;12.96;73.59;100614.41;5031316;27;102127;-49
2021/12/11 00:54:02;;;;;;;9.27;5.97;;;;;;;12.96;73.68;100617.13;5031512;27;102246;-49
2021/12/11 00:56:30;;;;;;;11.15;6.55;;;;;;;12.96;73.59;100613.59;5031330;27;102131;-49
2021/12/11 00:59:00;;;;;;;11.13;6.50;;;;;;;12.96;73.57;100613.59;5027261;27;103915;-50
2021/12/11 01:01:31;;;;;;;13.95;6.07;;;;;;;12.96;73.68;100606.19;5023169;27;102045;-49
2021/12/11 01:04:01;;;;;;;10.10;5.65;;;;;;;12.96;73.80;100611.66;5024474;27;102407;-49
2021/12/11 01:06:31;;;;;;;11.60;6.18;;;;;;;12.97;73.66;100615.19;5029788;27;102464;-50
2021/12/11 01:09:01;;;;;;;9.82;6.00;;;;;;;12.96;73.60;100617.13;5021050;27;103950;-49
2021/12/11 01:11:33;;;;;;;10.90;5.90;;;;;;;12.96;73.72;100616.31;5031820;27;104422;-50
2021/12/11 01:14:29;;;;;;;10.40;5.85;;;;;;;12.97;73.66;100615.19;5027981;27;102455;-49
2021/12/11 01:17:01;;;;;;;9.80;6.22;;;;;;;12.97;73.74;100607.00;5030602;27;104481;-49
2021/12/11 01:19:36;;;;;;;11.48;5.85;;;;;;;12.97;73.66;100607.00;5029614;27;103885;-49
2021/12/11 01:22:10;;;;;;;7.97;5.88;;;;;;;12.95;73.63;100615.50;5030045;27;103146;-49
2021/12/11 01:24:45;;;;;;;10.18;5.50;;;;;;;12.96;73.50;100613.59;5022345;27;102538;-48
2021/12/11 01:27:14;;;;;;;12.30;6.32;;;;;;;12.96;73.78;100606.19;5027083;28;102232;-49
2021/12/11 01:29:42;;;;;;;12.00;6.15;;;;;;;12.97;73.69;100607.00;5033393;27;103758;-49
2021/12/11 01:32:12;;;;;;;10.65;5.90;;;;;;;12.97;73.71;100607.81;5032808;27;102233;-49
2021/12/11 01:34:40;;;;;;;16.95;7.10;;;;;;;12.97;73.69;100596.09;5034620;27;103324;-49
2021/12/11 01:37:07;;;;;;;13.13;6.47;;;;;;;12.96;73.74;100592.53;5028552;27;102153;-49
2021/12/11 01:39:38;;;;;;;11.70;6.03;;;;;;;12.98;73.77;100584.03;5024532;27;103502;-49
2021/12/11 01:42:08;;;;;;;10.05;5.53;;;;;;;12.98;73.28;100586.78;5033861;27;102472;-49
2021/12/11 01:44:37;;;;;;;9.38;5.95;;;;;;;12.98;73.73;100597.69;5032957;27;102262;-49
2021/12/11 01:47:07;;;;;;;10.73;6.15;;;;;;;12.98;73.73;100589.50;5027920;27;102601;-49
2021/12/11 01:49:35;;;;;;;9.88;5.75;;;;;;;12.97;73.64;100590.63;5023991;27;103907;-49
2021/12/11 01:52:08;;;;;;;11.77;6.50;;;;;;;12.98;73.64;100594.97;5035343;27;102256;-49
2021/12/11 01:54:40;;;;;;;11.20;6.47;;;;;;;12.97;73.88;100593.34;5033857;27;102624;-49
2021/12/11 01:57:11;;;;;;;9.77;5.60;;;;;;;12.97;73.77;100591.44;5035812;27;102542;-49
2021/12/11 01:59:41;;;;;;;10.05;6.43;;;;;;;12.98;73.64;100586.78;5025812;27;103945;-49
2021/12/11 02:02:13;;;;;;;8.20;5.88;;;;;;;12.98;73.71;100586.78;5033229;27;102481;-49
2021/12/11 02:04:45;;;;;;;10.93;5.97;;;;;;;12.97;73.64;100585.16;5029937;27;102803;-49
2021/12/11 02:07:16;;;;;;;7.40;5.85;;;;;;;12.98;73.75;100578.56;5030154;27;103402;-49
2021/12/11 02:09:50;;;;;;;10.43;6.20;;;;;;;12.98;73.49;100586.78;5031098;27;103738;-50
2021/12/11 02:12:20;;;;;;;8.50;5.95;;;;;;;12.97;73.79;100579.69;5032635;27;102238;-49
2021/12/11 02:14:51;;;;;;;9.40;5.65;;;;;;;12.98;73.91;100581.31;5032411;27;102263;-52
2021/12/11 02:17:21;;;;;;;10.40;5.53;;;;;;;12.98;73.62;100578.56;5027174;27;102128;-50
2021/12/11 02:19:50;;;;;;;11.38;6.15;;;;;;;12.97;73.78;100576.97;5032858;27;103981;-49
2021/12/11 02:22:23;;;;;;;10.77;5.78;;;;;;;12.98;73.53;100575.84;5029209;27;102374;-49
2021/12/11 02:24:51;;;;;;;9.90;5.88;;;;;;;12.97;73.84;100585.97;5033071;27;102648;-49
2021/12/11 02:27:23;;;;;;;10.10;5.63;;;;;;;12.98;73.67;100593.06;5032568;27;102414;-51
2021/12/11 02:29:53;;;;;;;9.85;5.53;;;;;;;12.98;73.62;100575.84;5032480;27;103953;-49
2021/12/11 02:32:28;;;;;;;13.07;6.10;;;;;;;12.97;73.89;100585.16;5034018;27;102822;-50
2021/12/11 02:34:58;;;;;;;8.10;4.88;;;;;;;12.99;73.76;100588.44;5018893;27;102254;-49
2021/12/11 02:37:35;;;;;;;8.55;5.15;;;;;;;12.98;73.55;100578.56;5026045;27;102580;-50
2021/12/11 02:40:12;;;;;;;9.02;5.43;;;;;;;12.98;73.98;100581.31;5032394;27;104056;-49
2021/12/11 02:42:45;;;;;;;11.68;5.10;;;;;;;12.97;73.78;100585.97;5021106;27;102423;-49
2021/12/11 02:45:17;;;;;;;9.57;5.30;;;;;;;12.99;73.85;100588.44;5034405;27;102496;-49
2021/12/11 02:47:48;;;;;;;8.88;5.28;;;;;;;12.98;73.85;100586.78;5033416;27;102682;-49
2021/12/11 02:50:22;;;;;;;7.70;4.70;;;;;;;12.98;73.97;100581.31;5022398;27;103858;-49
2021/12/11 02:52:55;;;;;;;9.05;5.22;;;;;;;12.99;73.77;100574.75;5014506;27;102898;-49
2021/12/11 02:55:27;;;;;;;11.05;5.50;;;;;;;12.99;73.71;100574.75;5022324;27;102019;-49
2021/12/11 02:57:56;;;;;;;9.57;5.00;;;;;;;12.99;73.93;100567.38;5024269;27;102647;-49
2021/12/11 03:00:27;;;;;;;10.00;5.30;;;;;;;12.99;73.84;100555.66;5025593;27;103919;-50
2021/12/11 03:03:03;;;;;;;10.25;5.05;;;;;;;12.99;73.77;100561.09;5027263;27;103543;-49
2021/12/11 03:05:38;;;;;;;10.90;5.20;;;;;;;12.98;73.80;100554.00;5033833;27;102592;-49
2021/12/11 03:08:09;;;;;;;11.75;5.60;;;;;;;12.99;73.86;100556.44;5027976;28;102861;-50
2021/12/11 03:10:39;;;;;;;7.82;5.05;;;;;;;12.98;73.98;100560.31;5030837;27;103948;-49
2021/12/11 03:13:06;;;;;;;6.53;4.25;;;;;;;12.99;73.95;100550.19;5032150;27;102218;-49
2021/12/11 03:15:33;;;;;;;8.55;4.63;;;;;;;12.99;73.83;100544.72;5034071;27;102755;-49
2021/12/11 03:18:00;;;;;;;10.40;5.13;;;;;;;12.99;73.69;100552.91;5032714;28;102269;-49
2021/12/11 03:20:27;;;;;;;8.40;5.07;;;;;;;12.98;73.84;100549.38;5030330;27;103829;-49
2021/12/11 03:22:53;;;;;;;7.47;4.72;;;;;;;12.99;73.65;100555.66;5029901;27;103208;-49
2021/12/11 03:25:29;;;;;;;7.07;4.43;;;;;;;12.98;73.77;100557.56;5026600;27;102559;-50
2021/12/11 03:27:56;;;;;;;6.93;4.68;;;;;;;12.98;73.84;100557.56;5028397;27;102265;-49
2021/12/11 03:30:26;;;;;;;8.00;4.57;;;;;;;12.99;73.90;100561.91;5025949;27;103897;-50
2021/12/11 03:32:55;;;;;;;6.70;4.63;;;;;;;13.00;73.70;100573.66;5027052;27;103009;-49
2021/12/11 03:35:22;;;;;;;7.57;4.50;;;;;;;12.99;73.89;100580.22;5026473;27;102192;-49
2021/12/11 03:37:49;;;;;;;5.63;3.85;;;;;;;12.99;73.86;100578.31;5028255;27;103530;-49
2021/12/11 03:40:16;;;;;;;6.97;4.55;;;;;;;12.99;73.96;100582.97;5031835;27;105136;-49
2021/12/11 03:42:45;;;;;;;9.73;4.10;;;;;;;12.99;73.79;100582.97;5018081;27;102204;-49
2021/12/11 03:45:22;;;;;;;5.22;3.72;;;;;;;12.99;73.84;100588.44;5033963;27;102669;-49
2021/12/11 03:47:52;;;;;;;8.40;4.25;;;;;;;12.99;73.99;100588.44;5019325;27;102898;-50
2021/12/11 03:50:20;;;;;;;8.10;4.15;;;;;;;13.00;74.06;100592.78;5031576;27;104830;-49
2021/12/11 03:52:49;;;;;;;7.10;3.63;;;;;;;12.99;73.74;100589.22;5033020;27;102142;-51
2021/12/11 03:55:23;;;;;;;11.25;4.07;;;;;;;13.00;73.86;100595.50;5021487;27;102413;-49
2021/12/11 03:57:58;;;;;;;7.28;3.63;;;;;;;12.99;73.82;100589.22;5028974;27;102336;-49
2021/12/11 04:00:27;;;;;;;6.70;3.60;;;;;;;12.99;73.94;100577.50;5031122;27;103973;-49
2021/12/11 04:03:00;;;;;;;5.30;2.90;;;;;;;12.99;73.89;100561.09;5025525;27;102218;-49
2021/12/11 04:05:26;;;;;;;7.32;3.17;;;;;;;12.99;73.84;100563.84;5033095;27;102216;-50
2021/12/11 04:07:53;;;;;;;4.50;3.22;;;;;;;13.00;74.09;100584.59;5030591;27;102602;-50
2021/12/11 04:10:20;;;;;;;4.90;2.70;;;;;;;12.99;73.89;100580.22;5032522;27;104118;-49
2021/12/11 04:12:50;;;;;;;5.70;3.00;;;;;;;12.99;74.02;100589.22;5033667;27;102288;-50
2021/12/11 04:15:18;;;;;;;4.53;3.10;;;;;;;12.99;73.90;100582.97;5031305;27;102306;-50
2021/12/11 04:17:45;;;;;;;5.65;3.22;;;;;;;12.99;73.84;100582.97;5030463;27;102155;-49
2021/12/11 04:20:14;;;;;;;5.18;3.03;;;;;;;12.99;73.88;100588.44;5035880;27;103732;-49
2021/12/11 04:22:41;;;;;;;5.57;3.00;;;;;;;12.98;74.06;100576.69;5031036;27;102890;-49
2021/12/11 04:25:13;;;;;;;4.78;2.80;;;;;;;12.99;73.79;100585.69;5036517;27;102652;-51
2021/12/11 04:27:40;;;;;;;4.38;2.70;;;;;;;12.98;73.87;100586.78;5036847;27;102555;-49
2021/12/11 04:30:09;;;;;;;4.63;2.72;;;;;;;12.99;74.07;100585.69;5036850;27;103976;-50
2021/12/11 04:32:38;;;;;;;4.95;2.42;;;;;;;12.99;73.90;100586.50;5034262;27;102580;-49
2021/12/11 04:35:08;;;;;;;5.13;2.45;;;;;;;12.98;73.91;100593.06;5028076;27;102285;-49
2021/12/11 04:37:36;;;;;;;5.55;2.97;;;;;;;12.98;73.90;100592.25;5025513;27;102642;-49
2021/12/11 04:40:06;;;;;;;;;;;;;;;12.99;73.98;100591.16;5029947;27;103927;-50
2021/12/11 04:45:04;;;;;;;2.08;1.20;;;;;;;12.98;73.86;100589.50;5031818;27;102171;-49
2021/12/11 04:48:00;;;;;;;1.95;1.10;;;;;;;12.99;73.97;100593.88;5032194;27;102261;-49
2021/12/11 04:50:40;;;;;;;1.42;1.02;;;;;;;12.99;74.15;100596.63;5020494;27;104017;-50
2021/12/11 04:53:21;;;;;;;1.85;1.27;;;;;;;12.99;73.69;100591.16;5023542;27;102009;-49
2021/12/11 04:56:19;;;;;;;2.20;1.40;;;;;;;12.98;73.96;100587.63;5031038;27;102612;-50
2021/12/11 04:58:59;;;;;;;1.35;1.10;;;;;;;12.99;74.08;100593.88;5024701;27;102356;-48
2021/12/11 05:04:39;;;;;;;2.75;1.13;;;;;;;12.99;73.98;100582.97;5032625;27;102668;-49
2021/12/11 05:07:21;;;;;;;2.30;1.20;;;;;;;12.99;73.93;100586.50;5035823;27;102249;-49
2021/12/11 05:09:56;;;;;;;3.58;1.40;;;;;;;12.99;73.95;100589.22;5031454;27;103020;-50
2021/12/11 05:14:52;;;;;;;2.70;1.45;;;;;;;12.99;74.07;100591.97;5033308;27;102332;-49
2021/12/11 05:17:20;;;;;;;2.72;1.60;;;;;;;12.99;74.06;100594.69;5033017;27;102377;-50
2021/12/11 05:19:48;;;;;;;3.30;1.70;;;;;;;13.00;73.91;100592.78;5036585;27;102350;-47
2021/12/11 05:22:17;;;;;;;3.28;1.55;;;;;;;13.00;74.12;100590.03;5032117;27;104044;-49
2021/12/11 05:24:48;;;;;;;3.75;1.88;;;;;;;13.01;74.13;100593.59;5035921;27;102682;-49
2021/12/11 05:27:14;;;;;;;3.70;1.85;;;;;;;13.00;74.08;100590.03;5028023;27;102514;-49
2021/12/11 05:29:41;;;;;;;3.35;1.38;;;;;;;13.00;74.07;100598.25;5029464;27;102365;-50
2021/12/11 05:32:12;;;;;;;5.03;2.30;;;;;;;13.01;74.00;100597.13;5028744;27;104058;-49
2021/12/11 05:34:38;;;;;;;3.72;2.00;;;;;;;13.01;74.17;100597.13;5025730;27;102171;-49
2021/12/11 05:37:05;;;;;;;3.92;1.92;;;;;;;13.01;74.23;100602.59;5033257;27;102150;-49
2021/12/11 05:39:33;;;;;;;2.88;1.48;;;;;;;13.01;74.20;100602.59;5028177;27;102329;-49
2021/12/11 05:42:00;;;;;;;3.60;1.83;;;;;;;13.01;74.00;100609.97;5033744;27;103757;-49
2021/12/11 05:44:27;;;;;;;2.38;1.52;;;;;;;13.01;74.13;100597.13;5035928;27;102354;-49
2021/12/11 05:46:54;;;;;;;2.95;1.80;;;;;;;13.01;74.03;100591.66;5032937;27;102217;-49
2021/12/11 05:49:22;;;;;;;3.35;1.77;;;;;;;13.02;74.15;100598.78;5033730;27;102868;-49
2021/12/11 05:51:51;;;;;;;3.42;1.63;;;;;;;13.02;74.20;100603.41;5025888;27;104073;-50
2021/12/11 05:54:23;;;;;;;2.63;1.60;;;;;;;13.01;74.04;100616.25;5025500;27;103546;-50
2021/12/11 05:56:55;;;;;;;3.42;1.55;;;;;;;13.02;74.18;100615.16;5026395;27;102250;-49
2021/12/11 05:59:21;;;;;;;2.58;1.45;;;;;;;13.03;74.25;100624.16;5027883;27;102564;-49
2021/12/11 06:01:51;;;;;;;3.13;1.95;;;;;;;13.02;74.07;100626.09;5028975;27;103956;-49
2021/12/11 06:04:20;;;;;;;2.72;1.60;;;;;;;13.01;74.03;100629.91;5030236;27;103008;-50
2021/12/11 06:06:48;;;;;;;3.85;1.48;;;;;;;13.03;74.09;100633.19;5035058;27;102208;-49
2021/12/11 06:09:19;;;;;;;3.85;1.65;;;;;;;13.03;74.01;100635.09;5035095;27;102319;-49
2021/12/11 06:11:48;;;;;;;4.20;1.90;;;;;;;13.03;74.20;100638.63;5030820;27;103901;-49
2021/12/11 06:14:17;;;;;;;6.10;2.20;;;;;;;13.03;74.07;100644.09;5033546;27;102618;-50
2021/12/11 06:16:44;;;;;;;4.78;2.25;;;;;;;13.04;74.28;100642.19;5031907;27;102479;-50
2021/12/11 06:19:11;;;;;;;7.07;2.53;;;;;;;13.03;74.06;100638.63;5037216;27;102664;-49
2021/12/11 06:21:38;;;;;;;4.38;1.95;;;;;;;13.04;74.16;100639.44;5028233;27;103895;-49
2021/12/11 06:24:05;;;;;;;5.13;2.53;;;;;;;13.02;74.10;100639.75;5030525;27;102745;-49
2021/12/11 06:26:31;;;;;;;5.25;2.13;;;;;;;13.03;74.12;100638.63;5026365;27;102111;-49
2021/12/11 06:28:58;;;;;;;6.22;2.17;;;;;;;13.04;74.20;100642.19;5032829;27;102271;-49
2021/12/11 06:31:26;;;;;;;4.88;1.92;;;;;;;13.04;74.19;100644.91;5032508;27;103731;-49
2021/12/11 06:33:53;;;;;;;5.47;2.20;;;;;;;13.03;74.18;100646.84;5032390;27;102161;-50
2021/12/11 06:36:22;;;;;;;7.07;1.90;;;;;;;13.04;74.17;100648.47;5032625;27;102286;-49
2021/12/11 06:38:53;;;;;;;5.75;2.00;;;;;;;13.05;74.14;100658.28;5022793;27;102313;-49
2021/12/11 06:41:22;;;;;;;5.10;2.08;;;;;;;13.04;74.28;100656.66;5023947;28;104266;-49
2021/12/11 06:43:49;;;;;;;;;;;;;;;13.05;74.11;100652.81;5032883;27;102792;-49
2021/12/11 06:46:17;;;;;;;4.05;1.90;;;;;;;13.05;74.24;100647.34;5030900;27;103631;-49
2021/12/11 06:48:44;;;;;;;5.50;2.10;;;;;;;13.07;73.96;100655.28;5029365;27;102901;-49
2021/12/11 06:51:12;;;;;;;3.57;1.60;;;;;;;13.07;74.34;100653.34;5029911;27;103942;-50
2021/12/11 06:53:41;;;;;;;2.38;1.40;;;;;;;13.06;74.21;100657.19;5031994;27;102109;-49
2021/12/11 06:56:10;;;;;;;;;;;;;;;13.07;74.20;100656.09;5030830;27;102093;-49
2021/12/11 06:58:36;;;;;;;2.60;1.42;;;;;;;13.07;74.21;100658.81;5026647;27;102292;-51
2021/12/11 07:01:05;;;;;;;5.72;2.00;;;;;;;13.08;74.25;100663.16;5032406;27;103859;-49
2021/12/11 07:03:31;;;;;;;2.53;1.55;;;;;;;13.09;74.37;100674.91;5028666;27;102295;-49
2021/12/11 07:06:00;;;;;;;2.92;1.50;;;;;;;13.09;74.14;100675.75;5031889;27;102322;-51
2021/12/11 07:08:29;;;;;;;3.38;1.48;;;;;;;13.11;74.28;100689.91;5025042;27;102385;-49
2021/12/11 07:10:57;;;;;;;2.80;1.60;;;;;;;13.11;74.43;100689.09;5020039;27;103966;-49
2021/12/11 07:13:24;;;;;;;4.30;2.25;;;;;;;13.12;74.22;100705.19;5023873;27;102309;-49
2021/12/11 07:15:52;;;;;;;6.22;2.47;;;;;;;13.12;74.16;100707.94;5034190;27;102201;-48
2021/12/11 07:18:18;;;;;;;4.55;2.28;;;;;;;13.13;74.26;100716.97;5022255;27;102935;-50
2021/12/11 07:20:49;;;;;;;4.05;2.03;;;;;;;13.13;74.32;100712.31;5029155;27;103919;-50
2021/12/11 07:23:17;;;;;;;4.45;2.10;;;;;;;13.14;74.30;100730.31;5027935;27;102655;-49
2021/12/11 07:25:47;;;;;;;3.65;1.50;;;;;;;13.15;74.34;100729.22;5027594;27;102272;-49
2021/12/11 07:28:15;;;;;;;2.40;1.48;;;;;;;13.16;74.22;100738.22;5033185;27;102296;-49
2021/12/11 07:30:44;;;;;;;4.57;1.80;;;;;;;13.16;74.28;100752.72;5031762;27;103925;-48
2021/12/11 07:33:13;;;;;;;3.45;1.48;;;;;;;13.16;74.27;100739.06;5027637;27;103436;-49
2021/12/11 07:35:41;;;;;;;4.37;1.70;;;;;;;13.16;74.27;100741.78;5024495;27;102316;-49
2021/12/11 07:38:08;;;;;;;2.63;1.25;;;;;;;13.17;74.29;100753.53;5028190;27;102316;-48
2021/12/11 07:40:39;;;;;;;3.03;1.42;;;;;;;13.17;74.35;100762.53;5032425;27;104165;-48
2021/12/11 07:43:06;;;;;;;2.80;1.30;;;;;;;13.18;74.14;100771.56;5024598;27;102433;-49
2021/12/11 07:45:33;;;;;;;3.15;1.45;;;;;;;13.19;74.46;100781.38;5025740;27;102185;-50
2021/12/11 07:48:00;;;;;;;2.78;1.40;;;;;;;13.18;74.24;100775.09;5024384;27;102871;-49
2021/12/11 07:50:28;;;;;;;3.03;1.27;;;;;;;13.17;74.26;100781.69;5019185;27;104503;-48
2021/12/11 07:52:55;;;;;;;2.95;1.50;;;;;;;13.18;74.21;100780.56;5023716;27;102251;-49
2021/12/11 07:55:22;;;;;;;3.45;1.40;;;;;;;13.18;74.35;100780.56;5030723;27;106218;-49
2021/12/11 07:57:50;;;;;;;3.03;1.20;;;;;;;13.19;74.24;100786.84;5027820;27;102239;-48
2021/12/11 08:00:22;;;;;;;2.13;1.00;;;;;;;13.19;74.25;100795.84;5019038;27;103831;-49
2021/12/11 08:02:48;;;;;;;2.30;1.00;;;;;;;13.19;74.38;100798.59;5031068;27;102208;-50
2021/12/11 08:05:15;;;;;;;1.98;1.15;;;;;;;13.19;74.19;100795.03;5023099;28;102308;-49
2021/12/11 08:07:43;;;;;;;1.20;0.93;;;;;;;13.19;74.26;100798.59;5027480;28;102837;-48
2021/12/11 08:10:12;;;;;;;2.72;1.10;;;;;;;13.20;74.19;100802.97;5032767;27;103961;-49
2021/12/11 08:12:39;;;;;;;1.95;1.00;;;;;;;13.21;74.34;100801.03;5033231;27;102158;-49
2021/12/11 08:15:10;;;;;;;2.50;1.25;;;;;;;13.21;74.29;100815.53;5026043;27;102235;-50
2021/12/11 08:17:38;;;;;;;3.40;1.52;;;;;;;13.20;74.18;100819.38;5028046;27;102160;-49
2021/12/11 08:20:05;;;;;;;3.22;1.45;;;;;;;13.20;74.33;100830.28;5029483;27;102750;-50
2021/12/11 08:22:32;;;;;;;3.88;1.73;;;;;;;13.21;74.22;100839.31;5030298;27;103396;-50
2021/12/11 08:24:58;;;;;;;4.88;1.95;;;;;;;13.20;74.27;100843.97;5028519;27;102464;-49
2021/12/11 08:27:26;;;;;;;2.70;1.60;;;;;;;13.21;74.29;100847.50;5030310;27;102409;-49
2021/12/11 08:29:53;;;;;;;2.05;1.50;;;;;;;13.21;74.21;100842.84;5027065;27;103893;-50
2021/12/11 08:32:22;;;;;;;2.85;1.80;;;;;;;13.22;74.28;100849.13;5026038;27;102795;-49
2021/12/11 08:34:49;;;;;;;1.98;1.60;;;;;;;13.22;74.09;100860.88;5029579;27;102134;-50
2021/12/11 08:37:18;;;;;;;3.80;1.80;;;;;;;13.21;74.28;100859.25;5035942;27;103561;-49
2021/12/11 08:39:45;;;;;;;;;;;;;;;13.24;74.18;100865.28;5031971;27;103873;-49
2021/12/11 08:42:18;;;;;;;2.25;1.52;;;;;;;13.22;74.15;100857.31;5032943;27;105095;-49
2021/12/11 08:44:52;;;;;;;2.38;1.25;;;;;;;13.24;74.16;100862.56;5026752;27;102678;-49
2021/12/11 08:47:22;;;;;;;2.38;1.35;;;;;;;13.22;74.04;100871.81;5030334;27;102427;-49
2021/12/11 08:49:50;;;;;;;2.63;1.40;;;;;;;13.22;74.19;100877.25;5019690;27;104029;-49
2021/12/11 08:52:21;;;;;;;3.00;1.60;;;;;;;13.24;74.23;100868.03;5032794;27;102469;-49
2021/12/11 08:54:48;;;;;;;2.83;1.60;;;;;;;13.23;74.24;100867.16;5028600;27;102561;-49
2021/12/11 08:57:18;;;;;;;4.93;2.00;;;;;;;13.24;74.02;100878.94;5023267;27;102302;-49
2021/12/11 08:59:47;;;;;;;2.28;1.50;;;;;;;13.24;74.04;100873.47;5025722;27;103906;-50
2021/12/11 09:02:17;;;;;;;2.20;1.52;;;;;;;13.24;74.17;100878.94;5030075;27;102505;-49
2021/12/11 09:04:53;;;;;;;30.85;29.08;;;;;;;13.24;74.14;100878.94;5030045;27;103223;-49
2021/12/11 09:07:26;;;;;;;2.40;1.60;;;;;;;13.23;73.50;100878.06;5034906;27;102502;-48
2021/12/11 09:09:56;;;;;;;20.48;1.80;;;;;;;13.24;74.24;100884.41;5034805;27;103457;-49
2021/12/11 09:12:27;;;;;;;117.00;41.63;;;;;;;13.24;74.09;100889.88;5034534;27;102231;-49
2021/12/11 09:15:00;;;;;;;129.77;91.22;;;;;;;13.25;74.36;100894.25;5029982;27;103106;-49
2021/12/11 09:17:32;;;;;;;3.47;1.88;;;;;;;13.24;74.01;100887.16;5024156;27;102652;-49
2021/12/11 09:20:08;;;;;;;1.67;1.27;;;;;;;13.24;74.18;100901.63;5029404;27;104120;-50
2021/12/11 09:22:39;;;;;;;1.35;1.20;;;;;;;13.24;74.25;100900.81;5009694;28;102262;-49
2021/12/11 09:25:11;;;;;;;1.00;0.90;;;;;;;13.25;74.24;100903.25;5011239;28;103575;-49
2021/12/11 09:27:46;;;;;;;1.45;1.10;;;;;;;13.25;74.10;100910.63;5013515;28;102289;-49
2021/12/11 09:30:18;;;;;;;1.65;1.13;;;;;;;13.26;74.06;100923.19;5002404;28;104247;-49
2021/12/11 09:32:48;;;;;;;1.63;0.95;;;;;;;13.25;74.09;100924.31;5010154;28;102196;-49
2021/12/11 09:35:21;;;;;;;1.50;0.90;;;;;;;13.26;73.98;100925.94;5017272;28;102219;-49
2021/12/11 09:37:51;;;;;;;1.67;1.58;;;;;;;13.27;74.07;100930.28;5011211;28;102993;-50
2021/12/11 09:40:30;;;;;;;1.60;1.30;;;;;;;13.26;73.99;100921.28;5004785;28;104100;-49
2021/12/11 09:42:56;;;;;;;2.45;1.48;;;;;;;13.27;74.07;100925.66;5008932;28;102310;-49
2021/12/11 09:45:27;;;;;;;1.60;1.50;;;;;;;13.28;74.16;100929.22;5012062;28;102627;-48
2021/12/11 09:48:00;;;;;;;1.48;1.35;;;;;;;13.27;74.15;100922.94;5014072;28;101989;-48
2021/12/11 09:50:32;;;;;;;1.77;1.42;;;;;;;13.26;73.99;100926.75;5012788;28;104131;-49
2021/12/11 09:52:58;;;;;;;1.58;1.48;;;;;;;13.26;74.00;100932.22;5014471;28;102572;-49
2021/12/11 09:55:28;;;;;;;1.42;1.33;;;;;;;13.27;74.18;100938.47;5014088;28;102509;-49
2021/12/11 09:58:00;;;;;;;2.40;1.75;;;;;;;13.28;74.05;100929.22;5013085;28;102176;-49
2021/12/11 10:00:38;;;;;;;3.67;1.90;;;;;;;13.28;73.97;100934.66;5015880;28;103984;-50
2021/12/11 10:03:05;;;;;;;1.43;1.33;;;;;;;13.29;74.05;100939.03;5007216;28;102424;-49
2021/12/11 10:05:38;;;;;;;1.50;1.40;;;;;;;13.28;74.06;100934.66;5012607;28;102060;-49
2021/12/11 10:08:29;;;;;;;1.60;1.45;;;;;;;13.29;73.91;100958.16;5014928;28;102407;-49
2021/12/11 10:11:07;;;;;;;2.05;1.85;;;;;;;13.29;74.11;100941.75;5008829;28;103735;-49
2021/12/11 10:13:41;;;;;;;1.97;1.67;;;;;;;13.29;73.97;100944.50;5012510;28;102336;-49
2021/12/11 10:16:09;;;;;;;2.22;1.58;;;;;;;13.29;73.97;100936.28;5009506;28;104094;-49
2021/12/11 10:18:37;;;;;;;1.40;1.30;;;;;;;13.29;74.00;100947.22;5005117;28;102204;-49
2021/12/11 10:21:07;;;;;;;1.40;1.30;;;;;;;13.29;73.97;100947.22;5025076;27;103903;-48
2021/12/11 10:23:37;;;;;;;1.83;1.35;;;;;;;13.29;74.11;100941.75;5047635;27;103039;-49
2021/12/11 10:26:10;;;;;;;1.55;1.45;;;;;;;13.29;74.04;100939.03;5051259;27;102210;-49
2021/12/11 10:28:39;;;;;;;1.40;1.30;;;;;;;13.29;73.74;100950.78;5054056;27;102254;-49
2021/12/11 10:31:10;;;;;;;1.58;1.48;;;;;;;13.30;74.01;100951.59;5054838;27;104295;-49
2021/12/11 10:33:37;;;;;;;1.45;1.30;;;;;;;13.29;73.85;100955.44;5048700;27;103736;-50
2021/12/11 10:36:06;;;;;;;1.60;1.50;;;;;;;13.30;74.08;100954.31;5055470;27;102242;-49
2021/12/11 10:38:34;;;;;;;0.95;0.95;;;;;;;13.29;73.99;100941.75;5054403;27;102311;-50
2021/12/11 10:41:03;;;;;;;1.30;1.20;;;;;;;13.30;73.92;100944.19;5054450;27;103940;-49
2021/12/11 10:43:34;;;;;;;1.45;1.35;;;;;;;13.30;74.07;100943.38;5046508;27;102176;-50
2021/12/11 10:46:02;;;;;;;1.35;1.25;;;;;;;13.30;74.00;100952.41;5054923;27;102587;-49
2021/12/11 10:48:34;;;;;;;1.92;1.60;;;;;;;13.30;73.90;100955.13;5055975;27;102440;-49
2021/12/11 10:51:06;;;;;;;1.30;1.20;;;;;;;13.30;73.93;100954.31;5055284;27;103965;-50
2021/12/11 10:53:35;;;;;;;1.60;1.50;;;;;;;13.29;74.02;100949.97;5051219;27;102597;-49
2021/12/11 10:56:05;;;;;;;1.75;1.65;;;;;;;13.30;73.79;100960.59;5053426;27;102281;-50
2021/12/11 10:58:34;;;;;;;1.70;1.60;;;;;;;13.30;74.00;100955.13;5053810;27;102409;-52
2021/12/11 11:01:06;;;;;;;1.63;1.52;;;;;;;13.29;73.78;100955.44;5052408;27;104209;-49
2021/12/11 11:03:37;;;;;;;1.50;1.40;;;;;;;13.30;73.80;100957.06;5051848;27;102340;-49
2021/12/11 11:06:05;;;;;;;2.13;1.67;;;;;;;13.29;74.03;100958.97;5052746;27;101954;-49
2021/12/11 11:08:32;;;;;;;1.75;1.50;;;;;;;13.29;73.72;100958.16;5055216;27;102179;-49
2021/12/11 11:11:05;;;;;;;1.83;1.63;;;;;;;13.29;73.84;100958.16;5054761;27;104002;-49
2021/12/11 11:13:33;;;;;;;2.42;1.70;;;;;;;13.29;73.96;100949.97;5052304;27;102153;-49
2021/12/11 11:16:00;;;;;;;2.47;1.70;;;;;;;13.28;74.06;100951.88;5051175;27;102405;-50
2021/12/11 11:18:28;;;;;;;1.48;1.38;;;;;;;13.29;73.75;100958.97;5047138;27;102372;-49
2021/12/11 11:20:59;;;;;;;1.48;1.38;;;;;;;13.29;73.95;100955.44;5044398;27;103917;-50
2021/12/11 11:23:26;;;;;;;1.88;1.50;;;;;;;13.29;73.96;100958.16;5049809;27;102848;-49
2021/12/11 11:25:54;;;;;;;1.48;1.33;;;;;;;13.29;73.96;100969.09;5048179;27;102444;-48
2021/12/11 11:28:26;;;;;;;1.58;1.48;;;;;;;13.28;73.82;100954.63;5050178;27;102443;-49
2021/12/11 11:30:55;;;;;;;1.60;1.50;;;;;;;13.30;73.79;100959.78;5046817;27;104050;-49
2021/12/11 11:33:22;;;;;;;1.48;1.38;;;;;;;13.29;73.74;100963.63;5050579;27;102897;-49
2021/12/11 11:35:50;;;;;;;1.58;1.48;;;;;;;13.29;73.85;100960.91;5040658;27;102475;-49
2021/12/11 11:38:22;;;;;;;1.83;1.50;;;;;;;13.28;73.76;100965.56;5044815;27;102207;-49